sensor_id;sensor_type;location;lat;lon;timestamp;temperature;humidity
421;DHT22;63667;49.046;8.468;2023-07-31T22:04:25;18.70;99.60
421;DHT22;63667;49.046;8.468;2023-07-31T22:06:52;18.30;99.60
421;DHT22;63667;49.046;8.468;2023-07-31T22:09:21;18.20;99.60
421;DHT22;63667;49.046;8.468;2023-07-31T22:11:48;18.10;99.60
421;DHT22;63667;49.046;8.468;2023-07-31T22:14:15;18.10;99.60
421;DHT22;63667;49.046;8.468;2023-07-31T22:16:44;17.90;99.60
421;DHT22;63667;49.046;8.468;2023-07-31T22:19:11;17.60;99.60
421;DHT22;63667;49.046;8.468;2023-07-31T22:21:39;17.70;99.60
421;DHT22;63667;49.046;8.468;2023-07-31T22:24:06;17.70;99.60
421;DHT22;63667;49.046;8.468;2023-07-31T22:26:33;17.60;99.60
421;DHT22;63667;49.046;8.468;2023-07-31T22:29:00;17.60;99.60
421;DHT22;63667;49.046;8.468;2023-07-31T22:31:27;17.70;99.60
421;DHT22;63667;49.046;8.468;2023-07-31T22:33:54;17.80;99.60
421;DHT22;63667;49.046;8.468;2023-07-31T22:36:22;17.80;99.60
421;DHT22;63667;49.046;8.468;2023-07-31T22:38:49;17.80;99.60
421;DHT22;63667;49.046;8.468;2023-07-31T22:41:16;17.70;99.60
421;DHT22;63667;49.046;8.468;2023-07-31T22:43:44;17.70;99.60
421;DHT22;63667;49.046;8.468;2023-07-31T22:46:11;17.70;99.60
421;DHT22;63667;49.046;8.468;2023-07-31T22:48:39;17.70;99.60
421;DHT22;63667;49.046;8.468;2023-07-31T22:51:06;17.60;99.60
421;DHT22;63667;49.046;8.468;2023-07-31T22:53:34;17.60;99.60
421;DHT22;63667;49.046;8.468;2023-07-31T22:56:05;17.60;99.60
421;DHT22;63667;49.046;8.468;2023-07-31T22:58:35;17.60;99.60
421;DHT22;63667;49.046;8.468;2023-07-31T23:01:19;17.50;99.60
421;DHT22;63667;49.046;8.468;2023-07-31T23:03:47;17.60;99.60
421;DHT22;63667;49.046;8.468;2023-07-31T23:06:14;17.70;99.60
421;DHT22;63667;49.046;8.468;2023-07-31T23:08:41;17.60;99.60
421;DHT22;63667;49.046;8.468;2023-07-31T23:11:09;17.60;99.60
421;DHT22;63667;49.046;8.468;2023-07-31T23:13:37;17.60;99.60
421;DHT22;63667;49.046;8.468;2023-07-31T23:16:04;17.70;99.60
421;DHT22;63667;49.046;8.468;2023-07-31T23:18:31;17.70;99.60
421;DHT22;63667;49.046;8.468;2023-07-31T23:20:58;17.70;99.60
421;DHT22;63667;49.046;8.468;2023-07-31T23:23:26;17.70;99.60
421;DHT22;63667;49.046;8.468;2023-07-31T23:25:54;17.60;99.60
421;DHT22;63667;49.046;8.468;2023-07-31T23:28:21;17.70;99.60
421;DHT22;63667;49.046;8.468;2023-07-31T23:30:49;17.70;99.60
421;DHT22;63667;49.046;8.468;2023-07-31T23:33:16;17.60;99.60
421;DHT22;63667;49.046;8.468;2023-07-31T23:35:44;17.50;99.60
421;DHT22;63667;49.046;8.468;2023-07-31T23:38:11;17.60;99.60
421;DHT22;63667;49.046;8.468;2023-07-31T23:40:38;17.50;99.60
421;DHT22;63667;49.046;8.468;2023-07-31T23:43:06;17.60;99.60
421;DHT22;63667;49.046;8.468;2023-07-31T23:45:33;17.60;99.60
421;DHT22;63667;49.046;8.468;2023-07-31T23:48:01;17.50;99.60
421;DHT22;63667;49.046;8.468;2023-07-31T23:50:28;17.50;99.60
421;DHT22;63667;49.046;8.468;2023-07-31T23:52:56;17.50;99.60
421;DHT22;63667;49.046;8.468;2023-07-31T23:55:23;17.50;99.60
421;DHT22;63667;49.046;8.468;2023-07-31T23:57:51;17.50;99.60
